KDAG/DAG METAR and TAF weather

Enter ICAO airport designator
Station Type Date Time Source
KDAG METAR 2019/08/24 19:50 UTC NOAA

KDAG 241950Z AUTO 07008KT 10SM CLR 36/13 A2996 RMK AO2 SLP115 T03560128


Station Type Date Time Source
KDAG Decoded METAR 2019/08/24 19:50 UTC NOAA

Station name not available
Aug 24, 2019 - 03:50 PM EDT / 2019.08.24 1950 UTC
Wind: from the ENE (070 degrees) at 9 MPH (8 KT):0
Visibility: 10 mile(s):0
Sky conditions: clear
Temperature: 96.1 F (35.6 C)
Heat index: 94.1 F (34.5 C):1
Dew Point: 55.0 F (12.8 C)
Relative Humidity: 25%
Pressure (altimeter): 29.96 in. Hg (1014 hPa)
ob: KDAG 241950Z AUTO 07008KT 10SM CLR 36/13 A2996 RMK AO2 SLP115 T03560128
cycle: 20

Station Type Date Time Source
KDAG TAF 2019/08/24 18:36 UTC NOAA

TAF KDAG 241735Z 2418/2518 VRB05KT P6SM SKC
FM241900 07008KT P6SM SKC
FM250200 26010KT P6SM SKC

Example: see airport list